Time;durP1;ratioP1;P1;durP2;ratioP2;P2;SDS_P1;SDS_P2;PMS_P1;PMS_P2;Temp;Humidity;BMP_temperature;BMP_pressure;BME280_temperature;BME280_humidity;BME280_pressure;Samples;Min_cycle;Max_cycle;Signal;HPM_P1;HPM_P2
2022/10/19 05:31:26;;;;;;;69.93;40.22;;;;;;;;;;4928207;23;20066;-72
2022/10/19 05:33:52;;;;;;;65.60;38.85;;;;;;;;;;4914839;29;20046;-62
2022/10/19 05:36:26;;;;;;;65.93;40.90;;;;;;;;;;4915124;29;20376;-70
2022/10/19 05:38:53;;;;;;;75.88;44.67;;;;;;;;;;4885613;29;20044;-63
2022/10/19 05:41:19;;;;;;;72.97;42.17;;;;;;;;;;4894878;29;20069;-66
2022/10/19 05:43:46;;;;;;;72.95;41.20;;;;;;;;;;4894609;29;20025;-62
2022/10/19 05:46:13;;;;;;;69.07;43.67;;;;;;;;;;4895665;29;20445;-61
2022/10/19 05:48:40;;;;;;;68.20;41.78;;;;;;;;;;4895882;29;20112;-83
2022/10/19 05:51:07;;;;;;;71.88;42.38;;;;;;;;;;4895967;29;20037;-63
2022/10/19 05:53:34;;;;;;;72.93;43.95;;;;;;;;;;4896151;29;20084;-66
2022/10/19 05:56:00;;;;;;;67.55;41.45;;;;;;;;;;4895646;29;20029;-72
2022/10/19 05:58:27;;;;;;;67.55;39.25;;;;;;;;;;4895440;29;20109;-76
2022/10/19 06:00:57;;;;;;;67.57;39.45;;;;;;;;;;4895265;29;20060;-72
2022/10/19 06:03:24;;;;;;;63.70;38.70;;;;;;;;;;4878756;29;20037;-68
2022/10/19 06:05:51;;;;;;;64.40;37.35;;;;;;;;;;4878619;29;20039;-79
2022/10/19 06:08:17;;;;;;;60.33;36.50;;;;;;;;;;4895542;29;20087;-62
2022/10/19 06:10:44;;;;;;;63.70;36.28;;;;;;;;;;4877822;29;20048;-76
2022/10/19 06:13:10;;;;;;;54.92;35.25;;;;;;;;;;4893817;29;20024;-63
2022/10/19 06:15:38;;;;;;;59.03;35.95;;;;;;;;;;4894791;29;20032;-66
2022/10/19 06:18:06;;;;;;;60.15;36.75;;;;;;;;;;4895000;29;20028;-65
2022/10/19 06:20:33;;;;;;;54.63;35.47;;;;;;;;;;4893997;29;20401;-66
2022/10/19 06:22:59;;;;;;;59.10;35.72;;;;;;;;;;4892028;29;20032;-76
2022/10/19 06:25:25;;;;;;;56.78;35.72;;;;;;;;;;4894095;29;20029;-76
2022/10/19 06:27:51;;;;;;;56.05;35.53;;;;;;;;;;4877706;29;20032;-76
2022/10/19 06:30:18;;;;;;;53.33;34.33;;;;;;;;;;4891201;29;20048;-64
2022/10/19 06:32:44;;;;;;;55.97;36.00;;;;;;;;;;4897097;29;20032;-61
2022/10/19 06:35:10;;;;;;;55.42;34.90;;;;;;;;;;4897498;29;20029;-61
2022/10/19 06:37:36;;;;;;;58.47;34.45;;;;;;;;;;4897232;29;20043;-62
2022/10/19 06:40:02;;;;;;;58.10;35.55;;;;;;;;;;4897628;29;20032;-60
2022/10/19 06:42:28;;;;;;;51.75;33.97;;;;;;;;;;4897399;29;20052;-61
2022/10/19 06:44:54;;;;;;;59.28;33.90;;;;;;;;;;4879957;29;20064;-63
2022/10/19 06:47:20;;;;;;;51.53;32.33;;;;;;;;;;4897676;29;20132;-60
2022/10/19 06:49:46;;;;;;;55.92;31.15;;;;;;;;;;4897564;29;20096;-65
2022/10/19 06:52:12;;;;;;;49.63;30.95;;;;;;;;;;4898777;29;20695;-60
2022/10/19 06:54:38;;;;;;;47.65;30.13;;;;;;;;;;4898479;29;20085;-61
2022/10/19 06:57:06;;;;;;;50.30;30.52;;;;;;;;;;4898433;29;20088;-60
2022/10/19 06:59:32;;;;;;;44.03;29.85;;;;;;;;;;4898219;29;20037;-60
2022/10/19 07:01:58;;;;;;;46.22;29.35;;;;;;;;;;4898523;29;20153;-62
2022/10/19 07:04:24;;;;;;;45.25;29.67;;;;;;;;;;4880716;29;20097;-60
2022/10/19 07:06:51;;;;;;;53.03;31.85;;;;;;;;;;4881302;29;20052;-59
2022/10/19 07:09:18;;;;;;;44.33;29.15;;;;;;;;;;4896873;29;20108;-61
2022/10/19 07:11:44;;;;;;;47.88;28.58;;;;;;;;;;4879491;29;20100;-65
2022/10/19 07:14:10;;;;;;;47.45;27.45;;;;;;;;;;4897322;29;20032;-60
2022/10/19 07:16:36;;;;;;;46.35;28.17;;;;;;;;;;4897214;29;20096;-61
2022/10/19 07:19:02;;;;;;;47.47;27.27;;;;;;;;;;4896537;29;20087;-60
2022/10/19 07:21:28;;;;;;;41.55;27.55;;;;;;;;;;4897078;29;20357;-63
2022/10/19 07:23:54;;;;;;;46.03;28.83;;;;;;;;;;4897604;29;20033;-62
2022/10/19 07:26:25;;;;;;;46.03;28.80;;;;;;;;;;4898038;29;20093;-63
2022/10/19 07:28:51;;;;;;;45.88;28.77;;;;;;;;;;4897931;29;20021;-62
2022/10/19 07:31:19;;;;;;;46.08;27.92;;;;;;;;;;4897890;29;20104;-61
2022/10/19 07:33:45;;;;;;;43.92;27.52;;;;;;;;;;4897530;29;20455;-61
2022/10/19 07:36:12;;;;;;;46.72;29.08;;;;;;;;;;4897736;29;20031;-62
2022/10/19 07:38:38;;;;;;;48.50;28.92;;;;;;;;;;4897654;29;20052;-60
2022/10/19 07:41:06;;;;;;;48.05;28.10;;;;;;;;;;4897839;29;20555;-59
2022/10/19 07:43:33;;;;;;;46.47;28.52;;;;;;;;;;4896703;29;20045;-62
2022/10/19 07:46:00;;;;;;;44.10;27.00;;;;;;;;;;4897489;29;20111;-60
2022/10/19 07:48:26;;;;;;;44.13;27.25;;;;;;;;;;4897792;29;20136;-61
2022/10/19 07:50:52;;;;;;;43.47;28.25;;;;;;;;;;4897671;29;20032;-61
2022/10/19 07:53:18;;;;;;;44.60;26.42;;;;;;;;;;4896921;29;20051;-61
2022/10/19 07:55:44;;;;;;;37.42;26.05;;;;;;;;;;4896057;29;20559;-60
2022/10/19 07:58:10;;;;;;;38.70;26.90;;;;;;;;;;4897010;29;20055;-60
2022/10/19 08:00:36;;;;;;;40.67;25.48;;;;;;;;;;4888269;29;20033;-60
2022/10/19 08:03:02;;;;;;;43.50;25.10;;;;;;;;;;4896425;29;20028;-60
2022/10/19 08:05:28;;;;;;;37.65;24.73;;;;;;;;;;4896130;29;20091;-60
2022/10/19 08:07:54;;;;;;;36.15;24.00;;;;;;;;;;4895504;29;20063;-60
2022/10/19 08:10:20;;;;;;;38.28;24.60;;;;;;;;;;4895593;29;20062;-62
2022/10/19 08:12:46;;;;;;;41.97;24.63;;;;;;;;;;4896082;29;20060;-61
2022/10/19 08:15:12;;;;;;;41.97;25.05;;;;;;;;;;4896588;29;20032;-61
2022/10/19 08:17:39;;;;;;;38.80;24.45;;;;;;;;;;4897017;29;20044;-60
2022/10/19 08:20:06;;;;;;;36.75;23.83;;;;;;;;;;4896521;29;20028;-61
2022/10/19 08:22:32;;;;;;;37.10;24.23;;;;;;;;;;4894521;29;20035;-61
2022/10/19 08:24:58;;;;;;;38.10;24.65;;;;;;;;;;4896948;29;20508;-61
2022/10/19 08:27:24;;;;;;;39.67;24.08;;;;;;;;;;4895447;29;20037;-61
2022/10/19 08:29:50;;;;;;;38.40;23.67;;;;;;;;;;4887696;29;20498;-61
2022/10/19 08:32:17;;;;;;;37.55;23.02;;;;;;;;;;4896427;29;20504;-60
2022/10/19 08:34:43;;;;;;;39.25;23.65;;;;;;;;;;4895671;29;20036;-59
2022/10/19 08:37:10;;;;;;;38.78;23.42;;;;;;;;;;4895307;29;20107;-62
2022/10/19 08:39:36;;;;;;;38.90;24.20;;;;;;;;;;4895151;29;20033;-59
2022/10/19 08:42:04;;;;;;;45.30;24.98;;;;;;;;;;4895340;29;20566;-62
2022/10/19 08:44:48;;;;;;;38.95;24.65;;;;;;;;;;4895311;29;20552;-61
2022/10/19 08:47:20;;;;;;;41.58;24.52;;;;;;;;;;4895731;29;20515;-60
2022/10/19 08:49:46;;;;;;;36.03;23.40;;;;;;;;;;4896039;29;20096;-61
2022/10/19 08:52:17;;;;;;;38.45;23.77;;;;;;;;;;4896183;29;20032;-61
2022/10/19 08:54:46;;;;;;;37.50;23.88;;;;;;;;;;4895402;29;20029;-61
2022/10/19 08:57:23;;;;;;;38.22;23.10;;;;;;;;;;4896498;29;20052;-61
2022/10/19 08:59:58;;;;;;;38.45;24.60;;;;;;;;;;4879057;29;20056;-61
2022/10/19 09:02:46;;;;;;;43.58;25.15;;;;;;;;;;4896714;29;20033;-61
2022/10/19 09:05:27;;;;;;;43.20;25.00;;;;;;;;;;4879658;29;20865;-64
2022/10/19 09:07:54;;;;;;;43.05;25.38;;;;;;;;;;4896066;29;20115;-59
2022/10/19 09:10:24;;;;;;;35.10;23.17;;;;;;;;;;4895822;29;20485;-60
2022/10/19 09:12:57;;;;;;;38.95;23.95;;;;;;;;;;4895511;29;20032;-60
2022/10/19 09:15:29;;;;;;;36.75;24.58;;;;;;;;;;4895860;29;20036;-62
2022/10/19 09:17:55;;;;;;;42.10;25.83;;;;;;;;;;4896115;29;20028;-60
2022/10/19 09:20:22;;;;;;;81.47;41.00;;;;;;;;;;4894531;29;20100;-60
2022/10/19 09:22:52;;;;;;;50.35;31.27;;;;;;;;;;4895347;29;20040;-64
2022/10/19 09:25:22;;;;;;;39.13;25.05;;;;;;;;;;4894875;29;20028;-60
2022/10/19 09:27:52;;;;;;;40.63;24.50;;;;;;;;;;4895331;29;20079;-65
2022/10/19 09:30:19;;;;;;;44.15;26.17;;;;;;;;;;4894621;29;20061;-60
2022/10/19 09:32:46;;;;;;;50.75;29.73;;;;;;;;;;4895145;29;20039;-60
2022/10/19 09:35:31;;;;;;;45.88;28.75;;;;;;;;;;4894412;29;20065;-63
2022/10/19 09:37:57;;;;;;;38.53;22.50;;;;;;;;;;4895060;29;20041;-59
2022/10/19 09:40:25;;;;;;;42.30;24.38;;;;;;;;;;4894884;29;20025;-63
2022/10/19 09:42:55;;;;;;;37.88;24.20;;;;;;;;;;4894061;29;20028;-61
2022/10/19 09:45:24;;;;;;;32.17;20.95;;;;;;;;;;4894690;29;20024;-60
2022/10/19 09:47:51;;;;;;;37.97;22.45;;;;;;;;;;4894736;29;20025;-60
2022/10/19 09:50:21;;;;;;;32.65;21.55;;;;;;;;;;4887609;29;20500;-60
2022/10/19 09:52:48;;;;;;;32.38;22.70;;;;;;;;;;4895016;29;20063;-63
2022/10/19 09:55:14;;;;;;;39.05;22.55;;;;;;;;;;4897988;29;20039;-62
2022/10/19 09:57:44;;;;;;;33.88;22.33;;;;;;;;;;4914184;29;20042;-66
2022/10/19 10:00:18;;;;;;;33.58;21.02;;;;;;;;;;4906377;29;20074;-59
2022/10/19 10:02:48;;;;;;;39.15;23.73;;;;;;;;;;4914264;29;20036;-58
2022/10/19 10:05:14;;;;;;;34.45;22.27;;;;;;;;;;4914089;29;20036;-60
2022/10/19 10:07:40;;;;;;;30.58;20.60;;;;;;;;;;4917373;29;20095;-58
2022/10/19 10:10:27;;;;;;;34.78;19.58;;;;;;;;;;4918135;29;20099;-60
2022/10/19 10:12:54;;;;;;;30.92;19.58;;;;;;;;;;4917834;29;20028;-59
2022/10/19 10:15:27;;;;;;;35.53;20.02;;;;;;;;;;4917865;29;20468;-59
2022/10/19 10:17:54;;;;;;;35.85;19.45;;;;;;;;;;4917491;29;20028;-65
2022/10/19 10:20:31;;;;;;;34.90;22.45;;;;;;;;;;4904883;29;20029;-60
2022/10/19 10:22:59;;;;;;;29.48;16.27;;;;;;;;;;4898773;29;20070;-59
2022/10/19 10:25:35;;;;;;;28.05;16.77;;;;;;;;;;4898932;29;20025;-60
2022/10/19 10:28:03;;;;;;;29.85;16.88;;;;;;;;;;4899058;29;20440;-59
2022/10/19 10:30:33;;;;;;;29.83;17.48;;;;;;;;;;4890333;29;20543;-59
2022/10/19 10:32:59;;;;;;;30.45;17.90;;;;;;;;;;4898853;29;20581;-58
2022/10/19 10:35:29;;;;;;;31.25;17.98;;;;;;;;;;4898487;29;20028;-58
2022/10/19 10:38:04;;;;;;;31.05;16.15;;;;;;;;;;4898586;29;20044;-61
2022/10/19 10:40:30;;;;;;;35.78;18.90;;;;;;;;;;4898695;29;20504;-59
2022/10/19 10:43:07;;;;;;;33.95;17.55;;;;;;;;;;4898360;29;20033;-59
2022/10/19 10:45:38;;;;;;;31.38;16.25;;;;;;;;;;4898513;29;20024;-65
2022/10/19 10:48:14;;;;;;;24.90;15.50;;;;;;;;;;4897736;29;20029;-64
2022/10/19 10:50:40;;;;;;;26.98;16.17;;;;;;;;;;4873598;29;20039;-61
2022/10/19 10:53:07;;;;;;;26.02;15.40;;;;;;;;;;4898572;29;20039;-61
2022/10/19 10:55:33;;;;;;;25.13;15.25;;;;;;;;;;4899739;29;20479;-59
2022/10/19 10:58:19;;;;;;;26.88;14.35;;;;;;;;;;4917403;29;20284;-58
2022/10/19 11:00:46;;;;;;;29.08;14.13;;;;;;;;;;4908852;29;20099;-58
2022/10/19 11:03:28;;;;;;;21.42;12.30;;;;;;;;;;4916708;29;20524;-60
2022/10/19 11:05:58;;;;;;;14.45;8.25;;;;;;;;;;4917117;29;20035;-60
2022/10/19 11:08:27;;;;;;;18.38;12.85;;;;;;;;;;4916951;29;20032;-60
2022/10/19 11:11:12;;;;;;;20.95;12.77;;;;;;;;;;4917167;29;20142;-66
2022/10/19 11:13:45;;;;;;;22.45;12.40;;;;;;;;;;4917053;29;20059;-60
2022/10/19 11:16:12;;;;;;;14.38;8.70;;;;;;;;;;4916956;29;20043;-60
2022/10/19 11:18:51;;;;;;;21.65;11.88;;;;;;;;;;4915562;29;20039;-61
2022/10/19 11:21:31;;;;;;;20.63;11.02;;;;;;;;;;4917103;29;20059;-61
2022/10/19 11:24:00;;;;;;;21.27;12.02;;;;;;;;;;4916851;29;20080;-60
2022/10/19 11:26:42;;;;;;;20.40;12.82;;;;;;;;;;4899617;29;20028;-60
2022/10/19 11:29:14;;;;;;;21.25;11.65;;;;;;;;;;4914107;29;20021;-60
2022/10/19 11:32:09;;;;;;;20.45;11.38;;;;;;;;;;4911620;29;20480;-65
2022/10/19 11:34:44;;;;;;;21.15;11.95;;;;;;;;;;4839422;29;20137;-60
2022/10/19 11:37:33;;;;;;;19.05;11.52;;;;;;;;;;4839499;29;20037;-60
2022/10/19 11:40:06;;;;;;;22.02;11.27;;;;;;;;;;4821266;29;20054;-61
2022/10/19 11:42:47;;;;;;;19.90;11.30;;;;;;;;;;4820884;29;20054;-60
2022/10/19 11:45:18;;;;;;;25.25;11.57;;;;;;;;;;4821206;29;20069;-60
2022/10/19 11:47:54;;;;;;;21.55;11.90;;;;;;;;;;4820931;29;20445;-61
2022/10/19 11:50:20;;;;;;;15.43;10.40;;;;;;;;;;4821471;29;20503;-61
2022/10/19 11:52:52;;;;;;;22.10;10.13;;;;;;;;;;4821290;29;20042;-64
2022/10/19 11:55:37;;;;;;;25.48;10.88;;;;;;;;;;4821085;29;20058;-61
2022/10/19 11:58:18;;;;;;;18.38;10.98;;;;;;;;;;4820735;29;20069;-62
2022/10/19 12:00:48;;;;;;;23.35;10.77;;;;;;;;;;4820594;29;20034;-61
2022/10/19 12:03:21;;;;;;;21.30;12.05;;;;;;;;;;4820809;29;20555;-61
2022/10/19 12:05:50;;;;;;;22.83;12.25;;;;;;;;;;4820769;29;20041;-67
2022/10/19 12:08:22;;;;;;;18.27;11.63;;;;;;;;;;4820718;29;20052;-62
2022/10/19 12:10:57;;;;;;;23.15;12.55;;;;;;;;;;4836405;29;20529;-61
2022/10/19 12:13:27;;;;;;;25.02;13.02;;;;;;;;;;4857322;29;20517;-63
2022/10/19 12:15:55;;;;;;;23.92;14.30;;;;;;;;;;4850138;29;20048;-71
2022/10/19 12:18:40;;;;;;;25.95;14.15;;;;;;;;;;4893576;29;20485;-62
2022/10/19 12:21:26;;;;;;;26.35;15.48;;;;;;;;;;4895740;29;20037;-63
2022/10/19 12:23:52;;;;;;;23.77;14.77;;;;;;;;;;4896278;29;20424;-62
2022/10/19 12:26:21;;;;;;;24.25;14.35;;;;;;;;;;4895833;29;20032;-61
2022/10/19 12:28:49;;;;;;;29.63;16.65;;;;;;;;;;4896339;29;20020;-61
2022/10/19 12:31:15;;;;;;;25.08;15.90;;;;;;;;;;4894889;29;20103;-62
2022/10/19 12:33:56;;;;;;;27.15;16.85;;;;;;;;;;4896416;29;20052;-61
2022/10/19 12:36:28;;;;;;;25.55;15.63;;;;;;;;;;4895952;29;20115;-63
2022/10/19 12:39:13;;;;;;;27.80;17.50;;;;;;;;;;4896046;29;20037;-69
2022/10/19 12:42:09;;;;;;;26.70;16.60;;;;;;;;;;4876763;29;20044;-62
2022/10/19 12:44:41;;;;;;;34.58;18.70;;;;;;;;;;4875366;29;20401;-61
2022/10/19 12:47:07;;;;;;;;;;;;;;;;;;4895063;29;20139;-62
2022/10/19 12:49:35;;;;;;;28.45;18.40;;;;;;;;;;4896225;29;20002;-69
2022/10/19 12:52:02;;;;;;;31.30;17.00;;;;;;;;;;4896154;29;20028;-67
2022/10/19 12:54:29;;;;;;;33.60;18.05;;;;;;;;;;4895893;29;20029;-63
2022/10/19 12:56:57;;;;;;;29.58;18.20;;;;;;;;;;4895948;29;20033;-62
2022/10/19 12:59:24;;;;;;;28.13;18.08;;;;;;;;;;4891319;29;20064;-66
2022/10/19 13:01:51;;;;;;;27.35;17.42;;;;;;;;;;4905020;29;20031;-61
2022/10/19 13:04:24;;;;;;;28.80;18.08;;;;;;;;;;4914666;29;20084;-62
2022/10/19 13:06:58;;;;;;;29.30;18.08;;;;;;;;;;4914662;29;20070;-67
2022/10/19 13:09:30;;;;;;;28.90;18.75;;;;;;;;;;4897871;29;20489;-61
2022/10/19 13:11:56;;;;;;;;;;;;;;;;;;4915476;29;20421;-73
2022/10/19 13:14:41;;;;;;;31.35;18.63;;;;;;;;;;4900977;29;19966;-62
2022/10/19 13:17:07;;;;;;;28.23;18.30;;;;;;;;;;4895702;29;20559;-62
2022/10/19 13:19:34;;;;;;;34.88;20.08;;;;;;;;;;4895575;29;20390;-62
2022/10/19 13:22:19;;;;;;;35.60;18.60;;;;;;;;;;4895632;29;20027;-62
2022/10/19 13:25:05;;;;;;;37.50;18.40;;;;;;;;;;4895914;29;20093;-73
2022/10/19 13:27:35;;;;;;;27.55;18.48;;;;;;;;;;4895737;29;20035;-73
2022/10/19 13:30:01;;;;;;;32.67;20.02;;;;;;;;;;4887841;29;20077;-66
2022/10/19 13:32:43;;;;;;;35.28;19.88;;;;;;;;;;4876097;29;20144;-70
2022/10/19 13:35:23;;;;;;;37.08;22.33;;;;;;;;;;4878313;29;20041;-63
2022/10/19 13:38:08;;;;;;;37.92;24.35;;;;;;;;;;4895539;29;20812;-64
2022/10/19 13:40:37;;;;;;;40.78;24.63;;;;;;;;;;4895527;29;20380;-73
2022/10/19 13:43:03;;;;;;;39.85;25.48;;;;;;;;;;4895637;29;20116;-71
2022/10/19 13:45:29;;;;;;;41.25;25.20;;;;;;;;;;4895474;29;20485;-62
2022/10/19 13:48:00;;;;;;;43.45;25.45;;;;;;;;;;4895695;29;20033;-72
2022/10/19 13:50:29;;;;;;;27.70;17.90;;;;;;;;;;4895675;29;20381;-62
2022/10/19 13:52:58;;;;;;;38.00;24.90;;;;;;;;;;4895318;29;20028;-69
2022/10/19 13:55:40;;;;;;;39.20;24.80;;;;;;;;;;4895578;29;20033;-69
2022/10/19 13:58:12;;;;;;;40.58;24.52;;;;;;;;;;4895698;29;20039;-63
2022/10/19 14:00:57;;;;;;;36.72;23.98;;;;;;;;;;4887526;29;20090;-61
2022/10/19 14:03:42;;;;;;;34.28;22.65;;;;;;;;;;4895661;29;20037;-75
2022/10/19 14:06:26;;;;;;;34.55;22.88;;;;;;;;;;4895639;29;20029;-61
2022/10/19 14:09:11;;;;;;;36.60;23.50;;;;;;;;;;4895649;29;20084;-62
2022/10/19 14:11:39;;;;;;;35.80;23.10;;;;;;;;;;4895611;29;20071;-62
2022/10/19 14:14:11;;;;;;;39.28;23.48;;;;;;;;;;4895525;29;20040;-63
2022/10/19 14:16:46;;;;;;;34.65;23.05;;;;;;;;;;4895422;29;20112;-70
2022/10/19 14:19:13;;;;;;;38.38;23.05;;;;;;;;;;4895083;29;20041;-66
2022/10/19 14:21:40;;;;;;;40.60;22.70;;;;;;;;;;4895664;29;20024;-71
2022/10/19 14:24:26;;;;;;;35.42;22.55;;;;;;;;;;4895645;29;20032;-69
2022/10/19 14:26:53;;;;;;;33.45;22.27;;;;;;;;;;4894968;29;20128;-61
2022/10/19 14:29:19;;;;;;;33.22;22.67;;;;;;;;;;4894935;29;20430;-61
2022/10/19 14:31:45;;;;;;;33.97;21.83;;;;;;;;;;4895214;29;20188;-63
2022/10/19 14:34:13;;;;;;;32.80;22.45;;;;;;;;;;4895368;29;20044;-70
2022/10/19 14:36:43;;;;;;;45.20;28.42;;;;;;;;;;4895306;29;20060;-63
2022/10/19 14:39:21;;;;;;;36.22;23.00;;;;;;;;;;4895092;29;20044;-72
2022/10/19 14:41:47;;;;;;;33.50;21.50;;;;;;;;;;4895435;29;20116;-63
2022/10/19 14:44:31;;;;;;;37.45;22.55;;;;;;;;;;4894503;29;20104;-63
2022/10/19 14:47:00;;;;;;;37.72;22.75;;;;;;;;;;4894426;29;20093;-62
2022/10/19 14:49:26;;;;;;;35.58;22.67;;;;;;;;;;4894960;29;20538;-63
2022/10/19 14:51:56;;;;;;;39.30;22.58;;;;;;;;;;4894403;29;20044;-63
2022/10/19 14:54:27;;;;;;;33.90;22.58;;;;;;;;;;4897552;29;20040;-73
2022/10/19 14:56:59;;;;;;;36.58;22.98;;;;;;;;;;4898292;29;20039;-69
2022/10/19 14:59:29;;;;;;;33.80;22.02;;;;;;;;;;4875341;29;20129;-62
2022/10/19 15:01:57;;;;;;;37.28;22.98;;;;;;;;;;4876928;29;20064;-63
2022/10/19 15:04:26;;;;;;;39.72;24.25;;;;;;;;;;4879931;29;20148;-69
2022/10/19 15:06:52;;;;;;;40.08;23.52;;;;;;;;;;4871791;29;20067;-63
2022/10/19 15:09:25;;;;;;;41.78;25.33;;;;;;;;;;4898303;29;20136;-62
2022/10/19 15:11:52;;;;;;;42.70;26.65;;;;;;;;;;4898246;29;20024;-63
2022/10/19 15:14:25;;;;;;;50.55;29.35;;;;;;;;;;4890674;29;20025;-63
2022/10/19 15:16:53;;;;;;;53.10;31.25;;;;;;;;;;4897867;29;20033;-63
2022/10/19 15:19:19;;;;;;;48.03;30.92;;;;;;;;;;4897589;29;20051;-61
2022/10/19 15:21:45;;;;;;;45.40;27.63;;;;;;;;;;4897693;29;20389;-62
2022/10/19 15:24:40;;;;;;;48.65;30.40;;;;;;;;;;4896912;29;20041;-62
2022/10/19 15:27:29;;;;;;;44.60;28.70;;;;;;;;;;4821234;29;20047;-67
2022/10/19 15:29:59;;;;;;;39.20;26.27;;;;;;;;;;4803092;29;20123;-70
2022/10/19 15:32:27;;;;;;;36.58;25.10;;;;;;;;;;4803425;29;20050;-63
2022/10/19 15:34:53;;;;;;;39.90;26.20;;;;;;;;;;4803653;29;20520;-62
2022/10/19 15:37:20;;;;;;;37.38;23.55;;;;;;;;;;4802292;29;20058;-62
2022/10/19 15:39:47;;;;;;;38.72;23.88;;;;;;;;;;4802929;29;20043;-61
2022/10/19 15:42:36;;;;;;;39.65;24.50;;;;;;;;;;4803417;29;20167;-64
2022/10/19 15:45:03;;;;;;;35.15;22.42;;;;;;;;;;4749605;30;20048;-61
2022/10/19 15:47:30;;;;;;;35.28;22.08;;;;;;;;;;4747523;30;20147;-61
2022/10/19 15:50:00;;;;;;;34.33;22.60;;;;;;;;;;4739860;30;20051;-69
2022/10/19 15:52:27;;;;;;;30.95;21.45;;;;;;;;;;4742369;30;20041;-61
2022/10/19 15:54:54;;;;;;;34.65;22.27;;;;;;;;;;4752328;30;20877;-61
2022/10/19 15:57:27;;;;;;;35.10;22.00;;;;;;;;;;4749201;30;20445;-62
2022/10/19 15:59:54;;;;;;;30.35;21.52;;;;;;;;;;4749067;30;20064;-61
2022/10/19 16:02:20;;;;;;;34.95;21.45;;;;;;;;;;4749404;30;20051;-61
2022/10/19 16:04:46;;;;;;;32.28;21.60;;;;;;;;;;4781464;29;20040;-63
2022/10/19 16:07:17;;;;;;;34.08;21.98;;;;;;;;;;4800159;29;20100;-61
2022/10/19 16:09:43;;;;;;;32.22;21.60;;;;;;;;;;4821033;29;20053;-62
2022/10/19 16:12:10;;;;;;;33.22;23.00;;;;;;;;;;4820880;29;20034;-67
2022/10/19 16:14:36;;;;;;;38.60;24.60;;;;;;;;;;4821321;29;20034;-66
2022/10/19 16:17:02;;;;;;;39.55;24.58;;;;;;;;;;4820953;29;20046;-63
2022/10/19 16:19:29;;;;;;;37.50;24.20;;;;;;;;;;4820912;29;20103;-64
2022/10/19 16:21:55;;;;;;;36.85;24.30;;;;;;;;;;4846830;29;20523;-68
2022/10/19 16:24:21;;;;;;;39.30;24.63;;;;;;;;;;4878489;29;20028;-66
2022/10/19 16:26:47;;;;;;;34.40;23.25;;;;;;;;;;4878105;29;20060;-71
2022/10/19 16:29:13;;;;;;;38.70;23.02;;;;;;;;;;4874988;29;20041;-69
2022/10/19 16:31:39;;;;;;;35.65;21.50;;;;;;;;;;4872979;29;20505;-62
2022/10/19 16:34:05;;;;;;;34.00;21.50;;;;;;;;;;4877882;29;20098;-63
2022/10/19 16:36:31;;;;;;;35.67;22.17;;;;;;;;;;4878147;29;20036;-63
2022/10/19 16:38:59;;;;;;;38.70;23.38;;;;;;;;;;4877637;29;20040;-70
2022/10/19 16:41:25;;;;;;;33.20;21.65;;;;;;;;;;4877937;29;20052;-62
2022/10/19 16:43:55;;;;;;;36.25;19.63;;;;;;;;;;4877918;29;20486;-62
2022/10/19 16:46:22;;;;;;;28.77;18.15;;;;;;;;;;4877920;29;20474;-64
2022/10/19 16:48:48;;;;;;;25.10;14.20;;;;;;;;;;4880526;29;20036;-70
2022/10/19 16:51:33;;;;;;;23.50;12.95;;;;;;;;;;4896485;29;20021;-63
2022/10/19 16:53:59;;;;;;;19.92;10.52;;;;;;;;;;4896307;29;20052;-63
2022/10/19 16:56:26;;;;;;;15.57;7.88;;;;;;;;;;4896142;29;20115;-63
2022/10/19 16:58:53;;;;;;;17.48;8.25;;;;;;;;;;4895300;29;20032;-64
2022/10/19 17:01:19;;;;;;;14.00;7.78;;;;;;;;;;4888652;29;20028;-62
2022/10/19 17:03:46;;;;;;;16.58;8.48;;;;;;;;;;4879021;29;20035;-63
2022/10/19 17:06:12;;;;;;;18.55;8.70;;;;;;;;;;4896323;29;20029;-64
2022/10/19 17:08:39;;;;;;;21.55;7.88;;;;;;;;;;4895793;29;20104;-67
2022/10/19 17:11:09;;;;;;;17.13;8.38;;;;;;;;;;4896294;29;20453;-63
2022/10/19 17:13:35;;;;;;;13.10;7.20;;;;;;;;;;4896108;29;20048;-63
2022/10/19 17:16:05;;;;;;;15.95;7.45;;;;;;;;;;4895536;29;20028;-66
2022/10/19 17:18:31;;;;;;;11.60;7.07;;;;;;;;;;4896200;29;20077;-63
2022/10/19 17:21:04;;;;;;;13.98;7.55;;;;;;;;;;4896166;29;20072;-67
2022/10/19 17:23:30;;;;;;;14.23;7.72;;;;;;;;;;4896179;29;20076;-64
2022/10/19 17:25:56;;;;;;;13.13;7.40;;;;;;;;;;4897476;29;20025;-65
2022/10/19 17:28:22;;;;;;;13.27;7.70;;;;;;;;;;4910897;29;20045;-63
2022/10/19 17:30:49;;;;;;;14.88;7.57;;;;;;;;;;4894040;29;20056;-63
2022/10/19 17:33:15;;;;;;;15.77;7.70;;;;;;;;;;4893080;29;20078;-66
2022/10/19 17:35:41;;;;;;;12.98;7.97;;;;;;;;;;4894018;29;20037;-65
2022/10/19 17:38:07;;;;;;;13.30;7.28;;;;;;;;;;4894271;29;20036;-67
2022/10/19 17:40:33;;;;;;;15.18;7.93;;;;;;;;;;4894073;29;20073;-63
2022/10/19 17:42:59;;;;;;;12.80;7.32;;;;;;;;;;4894349;29;20086;-62
2022/10/19 17:45:25;;;;;;;17.67;8.23;;;;;;;;;;4894058;29;20358;-63
2022/10/19 17:47:51;;;;;;;12.88;8.05;;;;;;;;;;4894766;29;20036;-63
2022/10/19 17:50:17;;;;;;;19.05;8.38;;;;;;;;;;4894266;29;20033;-63
2022/10/19 17:52:43;;;;;;;20.10;8.65;;;;;;;;;;4894335;29;20028;-63
2022/10/19 17:55:10;;;;;;;15.20;8.50;;;;;;;;;;4895646;29;20040;-63
2022/10/19 17:57:36;;;;;;;14.85;8.68;;;;;;;;;;4895846;29;20029;-63
2022/10/19 18:00:03;;;;;;;14.18;8.18;;;;;;;;;;4894447;29;20043;-64
2022/10/19 18:02:29;;;;;;;17.52;9.18;;;;;;;;;;4894435;29;20021;-63
2022/10/19 18:04:55;;;;;;;18.23;9.85;;;;;;;;;;4894219;29;20048;-63
2022/10/19 18:07:24;;;;;;;14.65;9.85;;;;;;;;;;4894325;29;20033;-63
2022/10/19 18:09:50;;;;;;;18.17;10.68;;;;;;;;;;4894822;29;20033;-62
2022/10/19 18:12:16;;;;;;;21.55;12.15;;;;;;;;;;4895383;29;20032;-62
2022/10/19 18:14:43;;;;;;;23.08;11.88;;;;;;;;;;4895463;29;20048;-64
2022/10/19 18:17:09;;;;;;;22.15;10.38;;;;;;;;;;4896519;29;20084;-63
2022/10/19 18:19:35;;;;;;;23.63;11.48;;;;;;;;;;4908034;29;20040;-63
2022/10/19 18:22:01;;;;;;;18.60;11.00;;;;;;;;;;4906155;29;20366;-63
2022/10/19 18:24:28;;;;;;;20.83;11.45;;;;;;;;;;4898182;29;20039;-63
2022/10/19 18:26:54;;;;;;;21.92;12.30;;;;;;;;;;4903250;29;20100;-66
2022/10/19 18:29:21;;;;;;;22.95;11.43;;;;;;;;;;4898893;29;20060;-63
2022/10/19 18:31:50;;;;;;;17.98;10.20;;;;;;;;;;4898027;29;21283;-64
2022/10/19 18:34:16;;;;;;;20.65;10.35;;;;;;;;;;4897311;29;20159;-64
2022/10/19 18:36:42;;;;;;;20.42;10.80;;;;;;;;;;4898108;29;20030;-69
2022/10/19 18:39:09;;;;;;;19.73;10.50;;;;;;;;;;4898672;29;20063;-63
2022/10/19 18:41:35;;;;;;;21.40;11.18;;;;;;;;;;4898875;29;20087;-67
2022/10/19 18:44:04;;;;;;;17.20;10.90;;;;;;;;;;4898306;29;20385;-64
2022/10/19 18:46:30;;;;;;;23.55;12.73;;;;;;;;;;4898488;29;20032;-73
2022/10/19 18:48:56;;;;;;;24.42;12.55;;;;;;;;;;4898365;29;20508;-63
2022/10/19 18:51:23;;;;;;;19.98;11.73;;;;;;;;;;4898760;29;20036;-67
2022/10/19 18:53:49;;;;;;;29.85;14.25;;;;;;;;;;4898487;29;20032;-71
2022/10/19 18:56:17;;;;;;;26.67;14.63;;;;;;;;;;4898850;29;20032;-63
2022/10/19 18:58:43;;;;;;;19.02;11.68;;;;;;;;;;4898364;29;20047;-63
2022/10/19 19:01:10;;;;;;;27.65;16.02;;;;;;;;;;4897915;29;20037;-62
2022/10/19 19:03:37;;;;;;;26.73;13.35;;;;;;;;;;4898789;29;20091;-62
2022/10/19 19:06:04;;;;;;;23.98;12.80;;;;;;;;;;4900213;29;20469;-63
2022/10/19 19:08:30;;;;;;;20.83;11.05;;;;;;;;;;4905807;29;20040;-62
2022/10/19 19:10:57;;;;;;;20.00;11.50;;;;;;;;;;4898221;29;20032;-63
2022/10/19 19:13:23;;;;;;;21.85;11.52;;;;;;;;;;4898143;29;20048;-69
2022/10/19 19:15:56;;;;;;;21.08;11.30;;;;;;;;;;4898169;29;20079;-62
2022/10/19 19:18:22;;;;;;;18.20;10.60;;;;;;;;;;4898226;29;20062;-62
2022/10/19 19:20:48;;;;;;;18.80;11.68;;;;;;;;;;4898139;29;20031;-62
2022/10/19 19:23:14;;;;;;;26.50;11.43;;;;;;;;;;4897738;29;20112;-63
2022/10/19 19:25:40;;;;;;;23.77;10.90;;;;;;;;;;4897724;29;20120;-63
2022/10/19 19:28:06;;;;;;;23.52;11.63;;;;;;;;;;4915185;29;20025;-63
2022/10/19 19:30:32;;;;;;;24.55;12.02;;;;;;;;;;4908304;29;20059;-64
2022/10/19 19:32:58;;;;;;;26.67;13.52;;;;;;;;;;4916466;29;20024;-63
2022/10/19 19:35:24;;;;;;;19.35;11.52;;;;;;;;;;4916514;29;20042;-64
2022/10/19 19:37:51;;;;;;;20.45;10.77;;;;;;;;;;4916725;29;20020;-63
2022/10/19 19:40:17;;;;;;;19.88;10.10;;;;;;;;;;4915799;29;20028;-64
2022/10/19 19:42:43;;;;;;;27.05;11.88;;;;;;;;;;4911499;29;20028;-68
2022/10/19 19:45:09;;;;;;;28.33;12.32;;;;;;;;;;4916718;29;20032;-73
2022/10/19 19:47:35;;;;;;;19.40;11.38;;;;;;;;;;4899595;29;20028;-67
2022/10/19 19:50:01;;;;;;;19.42;11.38;;;;;;;;;;4898941;29;20405;-63
2022/10/19 19:52:27;;;;;;;20.73;9.15;;;;;;;;;;4913932;29;20047;-74
2022/10/19 19:54:53;;;;;;;17.25;8.95;;;;;;;;;;4897048;29;20449;-63
2022/10/19 19:57:19;;;;;;;16.65;7.28;;;;;;;;;;4896886;29;20036;-64
2022/10/19 19:59:45;;;;;;;11.18;7.13;;;;;;;;;;4888611;29;20401;-71
2022/10/19 20:02:11;;;;;;;12.93;7.57;;;;;;;;;;4886363;29;20401;-62